Tadoule Lake Airport
CYBQ : now visible

Airfield :











YOU CAN JOIN US ON...

 
LOGIN :

Register | Disclaimer

   EN    FR    IT 

 









Legend :    VFR   Marginal VFR   IFR   Intensive IFR   Very Intensive IFR
Visi :
Ceiling :
>= 8 km
>= 3000ft
5 to 8 km
1000 to 3000 ft
1500m to 5 km
500 to 1000 ft
800 to 1500m
200 to 500 ft
< 800m
< 200 ft
Symbols :   Thunderstorms  Fog  Heavy snow  Heavy precipitations  Wind > 20 kt






- Airport Elevation : 923 ft
- IATA code : XTL


CYBQ - Tadoule Lake

CURRENT METAR :
  • 220024Z AUTO 06005KT 2SM -SN OVC044 M20/M23 A2972 RMK SLP102

EXPIRED METARs :
  • 220000Z AUTO 05004KT 4SM -SN OVC050 M20/M23 A2972 RMK SLP102
  • 212337Z AUTO 06007KT 6SM -SN OVC046 M20/M23 A2971 RMK SLP098
  • 212300Z AUTO 03006KT 030V090 3SM -SN OVC034 M19/M22 A2972 RMK SLP102
  • 212247Z AUTO 08004KT 2 1/2SM -SN OVC030 M19/M22 A2972 RMK SLP099
  • 212241Z AUTO 08004KT 1 1/2SM -SN OVC030 M19/M22 A2972 RMK SLP100
  • 212224Z AUTO 08004KT 1 1/4SM -SN BKN028 OVC036 M19/M22 A2972 RMK SLP100
  • 212207Z AUTO 09006KT 1 1/2SM -SN OVC033 M19/M22 A2972 RMK VIS VRB 1 1/4-2 SLP099
  • 212154Z AUTO 07005KT 2SM -SN BKN033 OVC043 M19/M22 A2972 RMK SLP099
  • 212138Z AUTO 08005KT 3SM -SN BKN031 OVC043 M19/M22 A2972 RMK SLP099
  • 212119Z AUTO 09005KT 1 1/4SM -SN BKN027 OVC035 M20/M23 A2972 RMK SLP100
  • 212112Z AUTO 10006KT 2 1/4SM -SN BKN031 OVC046 M19/M23 A2972 RMK VIS VRB 1-3 SLP101
  • 212053Z AUTO 13005KT 7SM -SN BKN039 OVC046 M20/M23 A2972 RMK SLP101
  • 212037Z AUTO 12005KT 6SM -SN FEW025 BKN030 BKN036 OVC044 M19/M23 A2973 RMK SLP102
  • 212025Z AUTO 13006KT 100V160 5SM -SN FEW025 BKN030 BKN036 OVC081 M20/M23 A2973 RMK SLP103
  • 211951Z AUTO 12005KT 9SM -SN SCT019 OVC081 M20/M24 A2974 RMK SLP109
  • 211932Z AUTO 12006KT 3SM -SN BKN023 OVC035 M20/M24 A2975 RMK SLP112

TAF N/A
CZWG FIR / North America



MET'MAP, your aeronautical weather chart ! - Copyright ORBIFLY December 2007 - Disclaimer

ORBIFLY MET'MAP TEAM :

Programming & Development : Alexandra Zaïnal
Original concept : Baudouin d'Aumeries
Technical & hardware support : Manuel Goepfert
Assistance : Marc-Olivier Méhu




SOURCES & CREDITS :

   NOAA       Earth
Advisory